sensor_id;sensor_type;location;lat;lon;timestamp;P1;durP1;ratioP1;P2;durP2;ratioP2
77409;SDS011;66481;51.332;22.804;2024-02-26T00:00:44;23.08;;;13.25;;
77409;SDS011;66481;51.332;22.804;2024-02-26T00:05:07;22.23;;;12.55;;
77409;SDS011;66481;51.332;22.804;2024-02-26T00:09:09;23.20;;;14.50;;
77409;SDS011;66481;51.332;22.804;2024-02-26T00:13:11;21.08;;;13.18;;
77409;SDS011;66481;51.332;22.804;2024-02-26T00:17:12;18.83;;;11.60;;
77409;SDS011;66481;51.332;22.804;2024-02-26T00:21:13;18.35;;;10.95;;
77409;SDS011;66481;51.332;22.804;2024-02-26T00:25:14;16.85;;;10.60;;
77409;SDS011;66481;51.332;22.804;2024-02-26T00:29:15;18.92;;;10.70;;
77409;SDS011;66481;51.332;22.804;2024-02-26T00:33:16;16.85;;;11.30;;
77409;SDS011;66481;51.332;22.804;2024-02-26T00:37:18;16.73;;;9.68;;
77409;SDS011;66481;51.332;22.804;2024-02-26T00:41:20;19.65;;;12.35;;
77409;SDS011;66481;51.332;22.804;2024-02-26T00:45:21;17.83;;;11.38;;
77409;SDS011;66481;51.332;22.804;2024-02-26T00:49:22;20.20;;;11.10;;
77409;SDS011;66481;51.332;22.804;2024-02-26T00:53:23;19.33;;;12.32;;
77409;SDS011;66481;51.332;22.804;2024-02-26T00:57:25;17.15;;;11.13;;
77409;SDS011;66481;51.332;22.804;2024-02-26T01:01:27;23.02;;;12.30;;
77409;SDS011;66481;51.332;22.804;2024-02-26T01:05:28;22.05;;;12.90;;
77409;SDS011;66481;51.332;22.804;2024-02-26T01:09:30;24.83;;;14.77;;
77409;SDS011;66481;51.332;22.804;2024-02-26T01:13:31;27.23;;;15.48;;
77409;SDS011;66481;51.332;22.804;2024-02-26T01:17:32;25.52;;;16.83;;
77409;SDS011;66481;51.332;22.804;2024-02-26T01:21:33;26.48;;;15.05;;
77409;SDS011;66481;51.332;22.804;2024-02-26T01:25:34;28.52;;;15.82;;
77409;SDS011;66481;51.332;22.804;2024-02-26T01:29:35;29.92;;;16.13;;
77409;SDS011;66481;51.332;22.804;2024-02-26T01:33:36;25.23;;;15.82;;
77409;SDS011;66481;51.332;22.804;2024-02-26T01:37:38;26.65;;;15.30;;
77409;SDS011;66481;51.332;22.804;2024-02-26T01:41:39;27.50;;;16.88;;
77409;SDS011;66481;51.332;22.804;2024-02-26T01:45:41;27.73;;;15.98;;
77409;SDS011;66481;51.332;22.804;2024-02-26T01:49:42;30.45;;;17.02;;
77409;SDS011;66481;51.332;22.804;2024-02-26T01:53:43;28.27;;;15.57;;
77409;SDS011;66481;51.332;22.804;2024-02-26T01:57:46;26.60;;;15.48;;
77409;SDS011;66481;51.332;22.804;2024-02-26T02:01:51;32.72;;;16.95;;
77409;SDS011;66481;51.332;22.804;2024-02-26T02:05:55;26.58;;;16.50;;
77409;SDS011;66481;51.332;22.804;2024-02-26T02:09:56;29.92;;;16.45;;
77409;SDS011;66481;51.332;22.804;2024-02-26T02:13:57;33.10;;;17.42;;
77409;SDS011;66481;51.332;22.804;2024-02-26T02:17:58;33.78;;;18.65;;
77409;SDS011;66481;51.332;22.804;2024-02-26T02:21:59;32.75;;;18.52;;
77409;SDS011;66481;51.332;22.804;2024-02-26T02:26:00;39.53;;;20.50;;
77409;SDS011;66481;51.332;22.804;2024-02-26T02:30:01;34.83;;;18.38;;
77409;SDS011;66481;51.332;22.804;2024-02-26T02:34:04;34.25;;;19.10;;
77409;SDS011;66481;51.332;22.804;2024-02-26T02:38:05;35.78;;;19.50;;
77409;SDS011;66481;51.332;22.804;2024-02-26T02:42:06;33.35;;;18.65;;
77409;SDS011;66481;51.332;22.804;2024-02-26T02:46:07;32.97;;;18.45;;
77409;SDS011;66481;51.332;22.804;2024-02-26T02:50:08;33.30;;;18.50;;
77409;SDS011;66481;51.332;22.804;2024-02-26T02:54:10;32.47;;;19.05;;
77409;SDS011;66481;51.332;22.804;2024-02-26T02:58:10;36.25;;;19.45;;
77409;SDS011;66481;51.332;22.804;2024-02-26T03:02:11;33.40;;;19.40;;
77409;SDS011;66481;51.332;22.804;2024-02-26T03:06:13;36.85;;;19.80;;
77409;SDS011;66481;51.332;22.804;2024-02-26T03:10:14;39.50;;;20.45;;
77409;SDS011;66481;51.332;22.804;2024-02-26T03:14:15;41.33;;;22.35;;
77409;SDS011;66481;51.332;22.804;2024-02-26T03:18:16;39.67;;;21.15;;
77409;SDS011;66481;51.332;22.804;2024-02-26T03:22:17;39.90;;;22.15;;
77409;SDS011;66481;51.332;22.804;2024-02-26T03:26:18;36.72;;;20.77;;
77409;SDS011;66481;51.332;22.804;2024-02-26T03:30:20;38.53;;;21.50;;
77409;SDS011;66481;51.332;22.804;2024-02-26T03:34:21;41.60;;;20.30;;
77409;SDS011;66481;51.332;22.804;2024-02-26T03:38:22;44.42;;;23.27;;
77409;SDS011;66481;51.332;22.804;2024-02-26T03:42:23;39.50;;;21.85;;
77409;SDS011;66481;51.332;22.804;2024-02-26T03:46:25;40.58;;;23.13;;
77409;SDS011;66481;51.332;22.804;2024-02-26T03:50:26;48.97;;;24.25;;
77409;SDS011;66481;51.332;22.804;2024-02-26T03:54:27;49.33;;;22.55;;
77409;SDS011;66481;51.332;22.804;2024-02-26T03:58:30;50.13;;;25.08;;
77409;SDS011;66481;51.332;22.804;2024-02-26T04:02:31;47.97;;;24.85;;
77409;SDS011;66481;51.332;22.804;2024-02-26T04:06:32;49.42;;;24.67;;
77409;SDS011;66481;51.332;22.804;2024-02-26T04:10:33;50.42;;;24.08;;
77409;SDS011;66481;51.332;22.804;2024-02-26T04:14:40;48.03;;;23.20;;
77409;SDS011;66481;51.332;22.804;2024-02-26T04:18:42;50.92;;;24.55;;
77409;SDS011;66481;51.332;22.804;2024-02-26T04:22:43;52.28;;;25.77;;
77409;SDS011;66481;51.332;22.804;2024-02-26T04:26:44;54.42;;;25.65;;
77409;SDS011;66481;51.332;22.804;2024-02-26T04:30:46;52.08;;;24.90;;
77409;SDS011;66481;51.332;22.804;2024-02-26T04:34:48;44.35;;;22.77;;
77409;SDS011;66481;51.332;22.804;2024-02-26T04:38:49;48.97;;;24.77;;
77409;SDS011;66481;51.332;22.804;2024-02-26T04:42:50;54.50;;;24.58;;
77409;SDS011;66481;51.332;22.804;2024-02-26T04:46:51;57.17;;;24.42;;
77409;SDS011;66481;51.332;22.804;2024-02-26T04:50:53;46.97;;;24.00;;
77409;SDS011;66481;51.332;22.804;2024-02-26T04:54:54;46.58;;;23.88;;
77409;SDS011;66481;51.332;22.804;2024-02-26T04:58:55;44.17;;;22.90;;
77409;SDS011;66481;51.332;22.804;2024-02-26T05:02:56;51.50;;;24.35;;
77409;SDS011;66481;51.332;22.804;2024-02-26T05:06:57;47.53;;;24.25;;
77409;SDS011;66481;51.332;22.804;2024-02-26T05:10:58;45.80;;;23.15;;
77409;SDS011;66481;51.332;22.804;2024-02-26T05:15:01;42.78;;;22.35;;
77409;SDS011;66481;51.332;22.804;2024-02-26T05:19:03;46.13;;;23.98;;
77409;SDS011;66481;51.332;22.804;2024-02-26T05:23:04;48.08;;;23.25;;
77409;SDS011;66481;51.332;22.804;2024-02-26T05:27:05;52.83;;;25.80;;
77409;SDS011;66481;51.332;22.804;2024-02-26T05:31:06;46.95;;;23.67;;
77409;SDS011;66481;51.332;22.804;2024-02-26T05:35:07;55.65;;;28.58;;
77409;SDS011;66481;51.332;22.804;2024-02-26T05:39:09;52.00;;;25.85;;
77409;SDS011;66481;51.332;22.804;2024-02-26T05:43:12;54.17;;;26.48;;
77409;SDS011;66481;51.332;22.804;2024-02-26T05:51:18;51.45;;;26.33;;
77409;SDS011;66481;51.332;22.804;2024-02-26T05:55:19;54.50;;;26.27;;
77409;SDS011;66481;51.332;22.804;2024-02-26T05:59:20;63.88;;;27.77;;
77409;SDS011;66481;51.332;22.804;2024-02-26T06:03:22;61.53;;;28.63;;
77409;SDS011;66481;51.332;22.804;2024-02-26T06:07:23;53.05;;;26.08;;
77409;SDS011;66481;51.332;22.804;2024-02-26T06:11:24;61.55;;;28.40;;
77409;SDS011;66481;51.332;22.804;2024-02-26T06:15:26;58.78;;;27.45;;
77409;SDS011;66481;51.332;22.804;2024-02-26T06:19:27;59.78;;;26.45;;
77409;SDS011;66481;51.332;22.804;2024-02-26T06:23:29;61.90;;;29.23;;
77409;SDS011;66481;51.332;22.804;2024-02-26T06:27:30;56.85;;;27.88;;
77409;SDS011;66481;51.332;22.804;2024-02-26T06:31:32;55.85;;;27.27;;
77409;SDS011;66481;51.332;22.804;2024-02-26T06:35:33;62.90;;;31.55;;
77409;SDS011;66481;51.332;22.804;2024-02-26T06:39:35;71.32;;;31.98;;
77409;SDS011;66481;51.332;22.804;2024-02-26T06:43:37;70.13;;;29.33;;
77409;SDS011;66481;51.332;22.804;2024-02-26T06:47:39;59.45;;;27.90;;
77409;SDS011;66481;51.332;22.804;2024-02-26T06:51:40;59.47;;;27.52;;
77409;SDS011;66481;51.332;22.804;2024-02-26T06:55:42;60.33;;;29.38;;
77409;SDS011;66481;51.332;22.804;2024-02-26T06:59:43;56.50;;;27.35;;
77409;SDS011;66481;51.332;22.804;2024-02-26T07:03:50;63.95;;;28.52;;
77409;SDS011;66481;51.332;22.804;2024-02-26T07:07:51;63.42;;;28.02;;
77409;SDS011;66481;51.332;22.804;2024-02-26T07:11:52;58.17;;;29.73;;
77409;SDS011;66481;51.332;22.804;2024-02-26T07:15:53;57.65;;;28.38;;
77409;SDS011;66481;51.332;22.804;2024-02-26T07:19:55;56.85;;;26.63;;
77409;SDS011;66481;51.332;22.804;2024-02-26T07:23:56;56.22;;;26.63;;
77409;SDS011;66481;51.332;22.804;2024-02-26T07:27:57;61.00;;;27.73;;
77409;SDS011;66481;51.332;22.804;2024-02-26T07:31:58;60.92;;;27.67;;
77409;SDS011;66481;51.332;22.804;2024-02-26T07:36:00;54.67;;;27.08;;
77409;SDS011;66481;51.332;22.804;2024-02-26T07:40:01;56.30;;;28.08;;
77409;SDS011;66481;51.332;22.804;2024-02-26T07:44:02;61.83;;;28.77;;
77409;SDS011;66481;51.332;22.804;2024-02-26T07:48:03;55.35;;;27.83;;
77409;SDS011;66481;51.332;22.804;2024-02-26T07:52:05;53.55;;;26.73;;
77409;SDS011;66481;51.332;22.804;2024-02-26T07:56:06;55.10;;;26.25;;
77409;SDS011;66481;51.332;22.804;2024-02-26T08:00:08;55.00;;;26.08;;
77409;SDS011;66481;51.332;22.804;2024-02-26T08:04:10;53.67;;;26.50;;
77409;SDS011;66481;51.332;22.804;2024-02-26T08:08:11;47.33;;;24.48;;
77409;SDS011;66481;51.332;22.804;2024-02-26T08:12:12;46.45;;;23.70;;
77409;SDS011;66481;51.332;22.804;2024-02-26T08:16:13;38.75;;;23.55;;
77409;SDS011;66481;51.332;22.804;2024-02-26T08:20:14;43.33;;;23.40;;
77409;SDS011;66481;51.332;22.804;2024-02-26T08:24:16;37.60;;;19.75;;
77409;SDS011;66481;51.332;22.804;2024-02-26T08:28:17;42.65;;;21.52;;
77409;SDS011;66481;51.332;22.804;2024-02-26T08:32:18;39.35;;;21.27;;
77409;SDS011;66481;51.332;22.804;2024-02-26T08:36:20;36.22;;;21.42;;
77409;SDS011;66481;51.332;22.804;2024-02-26T08:40:23;28.10;;;17.40;;
77409;SDS011;66481;51.332;22.804;2024-02-26T08:44:24;29.15;;;17.23;;
77409;SDS011;66481;51.332;22.804;2024-02-26T08:48:26;30.30;;;18.48;;
77409;SDS011;66481;51.332;22.804;2024-02-26T08:52:27;26.27;;;16.92;;
77409;SDS011;66481;51.332;22.804;2024-02-26T08:56:28;25.63;;;15.40;;
77409;SDS011;66481;51.332;22.804;2024-02-26T09:00:29;31.63;;;17.98;;
77409;SDS011;66481;51.332;22.804;2024-02-26T09:04:31;25.13;;;16.05;;
77409;SDS011;66481;51.332;22.804;2024-02-26T09:08:32;27.23;;;16.48;;
77409;SDS011;66481;51.332;22.804;2024-02-26T09:12:34;27.25;;;16.42;;
77409;SDS011;66481;51.332;22.804;2024-02-26T09:16:35;27.58;;;15.68;;
77409;SDS011;66481;51.332;22.804;2024-02-26T09:20:36;30.73;;;18.15;;
77409;SDS011;66481;51.332;22.804;2024-02-26T09:24:37;29.77;;;17.20;;
77409;SDS011;66481;51.332;22.804;2024-02-26T09:28:38;27.65;;;17.80;;
77409;SDS011;66481;51.332;22.804;2024-02-26T09:32:40;25.92;;;15.70;;
77409;SDS011;66481;51.332;22.804;2024-02-26T09:36:40;27.95;;;14.48;;
77409;SDS011;66481;51.332;22.804;2024-02-26T09:40:49;26.48;;;16.15;;
77409;SDS011;66481;51.332;22.804;2024-02-26T09:44:51;27.60;;;16.40;;
77409;SDS011;66481;51.332;22.804;2024-02-26T09:48:54;27.17;;;15.38;;
77409;SDS011;66481;51.332;22.804;2024-02-26T09:52:56;24.88;;;13.52;;
77409;SDS011;66481;51.332;22.804;2024-02-26T09:57:00;27.35;;;15.88;;
77409;SDS011;66481;51.332;22.804;2024-02-26T10:01:05;26.98;;;15.80;;
77409;SDS011;66481;51.332;22.804;2024-02-26T10:05:12;30.90;;;16.33;;
77409;SDS011;66481;51.332;22.804;2024-02-26T10:09:19;24.20;;;14.43;;
77409;SDS011;66481;51.332;22.804;2024-02-26T10:13:20;26.23;;;15.82;;
77409;SDS011;66481;51.332;22.804;2024-02-26T10:17:21;30.95;;;16.35;;
77409;SDS011;66481;51.332;22.804;2024-02-26T10:21:23;28.83;;;17.92;;
77409;SDS011;66481;51.332;22.804;2024-02-26T10:25:24;29.48;;;16.77;;
77409;SDS011;66481;51.332;22.804;2024-02-26T10:29:25;28.70;;;14.93;;
77409;SDS011;66481;51.332;22.804;2024-02-26T10:33:27;29.45;;;16.17;;
77409;SDS011;66481;51.332;22.804;2024-02-26T10:37:28;27.55;;;15.20;;
77409;SDS011;66481;51.332;22.804;2024-02-26T10:41:29;27.55;;;15.48;;
77409;SDS011;66481;51.332;22.804;2024-02-26T10:45:30;23.95;;;16.10;;
77409;SDS011;66481;51.332;22.804;2024-02-26T10:49:33;23.65;;;14.20;;
77409;SDS011;66481;51.332;22.804;2024-02-26T10:53:36;23.33;;;13.68;;
77409;SDS011;66481;51.332;22.804;2024-02-26T10:57:39;26.77;;;14.90;;
77409;SDS011;66481;51.332;22.804;2024-02-26T11:01:41;23.83;;;13.75;;
77409;SDS011;66481;51.332;22.804;2024-02-26T11:05:50;24.90;;;14.90;;
77409;SDS011;66481;51.332;22.804;2024-02-26T11:09:52;24.15;;;13.77;;
77409;SDS011;66481;51.332;22.804;2024-02-26T11:13:53;26.10;;;14.80;;
77409;SDS011;66481;51.332;22.804;2024-02-26T11:17:58;23.00;;;15.82;;
77409;SDS011;66481;51.332;22.804;2024-02-26T11:22:00;23.55;;;14.55;;
77409;SDS011;66481;51.332;22.804;2024-02-26T11:26:04;23.08;;;14.52;;
77409;SDS011;66481;51.332;22.804;2024-02-26T11:30:10;23.15;;;14.43;;
77409;SDS011;66481;51.332;22.804;2024-02-26T11:34:13;24.33;;;14.05;;
77409;SDS011;66481;51.332;22.804;2024-02-26T11:38:21;23.45;;;14.85;;
77409;SDS011;66481;51.332;22.804;2024-02-26T11:42:24;21.75;;;13.30;;
77409;SDS011;66481;51.332;22.804;2024-02-26T11:46:30;21.25;;;13.35;;
77409;SDS011;66481;51.332;22.804;2024-02-26T11:50:39;19.83;;;12.07;;
77409;SDS011;66481;51.332;22.804;2024-02-26T11:54:54;18.95;;;11.90;;
77409;SDS011;66481;51.332;22.804;2024-02-26T11:59:01;19.38;;;12.68;;
77409;SDS011;66481;51.332;22.804;2024-02-26T12:03:14;19.85;;;11.70;;
77409;SDS011;66481;51.332;22.804;2024-02-26T12:07:18;17.90;;;11.25;;
77409;SDS011;66481;51.332;22.804;2024-02-26T12:11:20;19.48;;;11.20;;
77409;SDS011;66481;51.332;22.804;2024-02-26T12:15:22;17.88;;;11.35;;
77409;SDS011;66481;51.332;22.804;2024-02-26T12:19:24;16.77;;;11.35;;
77409;SDS011;66481;51.332;22.804;2024-02-26T12:23:25;15.48;;;11.65;;
77409;SDS011;66481;51.332;22.804;2024-02-26T12:27:28;15.50;;;10.50;;
77409;SDS011;66481;51.332;22.804;2024-02-26T12:31:29;17.40;;;11.38;;
77409;SDS011;66481;51.332;22.804;2024-02-26T12:35:31;21.05;;;11.40;;
77409;SDS011;66481;51.332;22.804;2024-02-26T12:39:33;21.95;;;13.35;;
77409;SDS011;66481;51.332;22.804;2024-02-26T12:43:34;19.08;;;11.93;;
77409;SDS011;66481;51.332;22.804;2024-02-26T12:47:36;18.30;;;11.80;;
77409;SDS011;66481;51.332;22.804;2024-02-26T12:51:39;17.55;;;10.25;;
77409;SDS011;66481;51.332;22.804;2024-02-26T12:55:42;35.40;;;22.55;;
77409;SDS011;66481;51.332;22.804;2024-02-26T12:59:43;12.15;;;8.38;;
77409;SDS011;66481;51.332;22.804;2024-02-26T13:03:46;12.45;;;8.57;;
77409;SDS011;66481;51.332;22.804;2024-02-26T13:07:47;14.38;;;8.50;;
77409;SDS011;66481;51.332;22.804;2024-02-26T13:11:55;14.52;;;8.40;;
77409;SDS011;66481;51.332;22.804;2024-02-26T13:16:03;13.35;;;7.85;;
77409;SDS011;66481;51.332;22.804;2024-02-26T13:20:08;15.35;;;9.23;;
77409;SDS011;66481;51.332;22.804;2024-02-26T13:24:12;10.30;;;7.72;;
77409;SDS011;66481;51.332;22.804;2024-02-26T13:28:15;10.68;;;8.10;;
77409;SDS011;66481;51.332;22.804;2024-02-26T13:32:17;15.20;;;8.25;;
77409;SDS011;66481;51.332;22.804;2024-02-26T13:36:22;11.02;;;7.55;;
77409;SDS011;66481;51.332;22.804;2024-02-26T13:40:24;14.70;;;8.80;;
77409;SDS011;66481;51.332;22.804;2024-02-26T13:44:27;15.15;;;10.35;;
77409;SDS011;66481;51.332;22.804;2024-02-26T13:48:28;16.27;;;11.32;;
77409;SDS011;66481;51.332;22.804;2024-02-26T13:52:30;18.10;;;11.20;;
77409;SDS011;66481;51.332;22.804;2024-02-26T13:56:33;22.35;;;11.70;;
77409;SDS011;66481;51.332;22.804;2024-02-26T14:00:35;25.42;;;14.50;;
77409;SDS011;66481;51.332;22.804;2024-02-26T14:04:36;22.38;;;13.88;;
77409;SDS011;66481;51.332;22.804;2024-02-26T14:08:39;24.73;;;14.75;;
77409;SDS011;66481;51.332;22.804;2024-02-26T14:12:40;63.88;;;29.73;;
77409;SDS011;66481;51.332;22.804;2024-02-26T14:16:41;30.13;;;15.02;;
77409;SDS011;66481;51.332;22.804;2024-02-26T14:20:42;119.25;;;43.30;;
77409;SDS011;66481;51.332;22.804;2024-02-26T14:24:45;82.97;;;33.28;;
77409;SDS011;66481;51.332;22.804;2024-02-26T14:28:46;146.68;;;48.67;;
77409;SDS011;66481;51.332;22.804;2024-02-26T14:32:48;53.10;;;23.73;;
77409;SDS011;66481;51.332;22.804;2024-02-26T14:36:52;29.40;;;16.48;;
77409;SDS011;66481;51.332;22.804;2024-02-26T14:40:53;24.92;;;14.63;;
77409;SDS011;66481;51.332;22.804;2024-02-26T14:44:55;33.63;;;17.10;;
77409;SDS011;66481;51.332;22.804;2024-02-26T14:48:56;24.00;;;14.40;;
77409;SDS011;66481;51.332;22.804;2024-02-26T14:53:00;26.92;;;16.02;;
77409;SDS011;66481;51.332;22.804;2024-02-26T14:57:03;28.70;;;16.67;;
77409;SDS011;66481;51.332;22.804;2024-02-26T15:01:05;81.13;;;30.50;;
77409;SDS011;66481;51.332;22.804;2024-02-26T15:05:08;191.35;;;54.67;;
77409;SDS011;66481;51.332;22.804;2024-02-26T15:09:11;56.33;;;25.13;;
77409;SDS011;66481;51.332;22.804;2024-02-26T15:13:13;42.80;;;21.17;;
77409;SDS011;66481;51.332;22.804;2024-02-26T15:17:16;29.13;;;17.05;;
77409;SDS011;66481;51.332;22.804;2024-02-26T15:21:17;32.85;;;17.20;;
77409;SDS011;66481;51.332;22.804;2024-02-26T15:25:18;57.33;;;26.10;;
77409;SDS011;66481;51.332;22.804;2024-02-26T15:29:20;75.57;;;30.33;;
77409;SDS011;66481;51.332;22.804;2024-02-26T15:33:23;35.33;;;20.60;;
77409;SDS011;66481;51.332;22.804;2024-02-26T15:37:25;41.88;;;23.02;;
77409;SDS011;66481;51.332;22.804;2024-02-26T15:41:26;39.17;;;21.63;;
77409;SDS011;66481;51.332;22.804;2024-02-26T15:45:28;39.90;;;20.95;;
77409;SDS011;66481;51.332;22.804;2024-02-26T15:49:34;34.80;;;19.67;;
77409;SDS011;66481;51.332;22.804;2024-02-26T15:53:36;43.85;;;24.10;;
77409;SDS011;66481;51.332;22.804;2024-02-26T15:57:37;39.58;;;22.80;;
77409;SDS011;66481;51.332;22.804;2024-02-26T16:01:39;33.75;;;19.73;;
77409;SDS011;66481;51.332;22.804;2024-02-26T16:05:40;32.97;;;19.25;;
77409;SDS011;66481;51.332;22.804;2024-02-26T16:09:42;31.42;;;17.95;;
77409;SDS011;66481;51.332;22.804;2024-02-26T16:13:43;33.50;;;20.15;;
77409;SDS011;66481;51.332;22.804;2024-02-26T16:17:46;35.30;;;20.15;;
77409;SDS011;66481;51.332;22.804;2024-02-26T16:25:50;39.35;;;22.08;;
77409;SDS011;66481;51.332;22.804;2024-02-26T16:29:53;37.92;;;21.23;;
77409;SDS011;66481;51.332;22.804;2024-02-26T16:33:55;45.97;;;26.05;;
77409;SDS011;66481;51.332;22.804;2024-02-26T16:37:57;47.95;;;26.10;;
77409;SDS011;66481;51.332;22.804;2024-02-26T16:41:58;62.80;;;28.90;;
77409;SDS011;66481;51.332;22.804;2024-02-26T16:46:00;106.43;;;46.83;;
77409;SDS011;66481;51.332;22.804;2024-02-26T16:50:02;42.83;;;25.05;;
77409;SDS011;66481;51.332;22.804;2024-02-26T16:54:07;51.25;;;26.75;;
77409;SDS011;66481;51.332;22.804;2024-02-26T16:58:08;46.20;;;26.25;;
77409;SDS011;66481;51.332;22.804;2024-02-26T17:02:09;44.33;;;25.23;;
77409;SDS011;66481;51.332;22.804;2024-02-26T17:06:13;44.60;;;23.10;;
77409;SDS011;66481;51.332;22.804;2024-02-26T17:10:17;41.67;;;22.65;;
77409;SDS011;66481;51.332;22.804;2024-02-26T17:14:19;42.17;;;23.50;;
77409;SDS011;66481;51.332;22.804;2024-02-26T17:18:22;48.80;;;25.88;;
77409;SDS011;66481;51.332;22.804;2024-02-26T17:22:23;65.47;;;30.95;;
77409;SDS011;66481;51.332;22.804;2024-02-26T17:26:28;66.32;;;33.45;;
77409;SDS011;66481;51.332;22.804;2024-02-26T17:30:29;82.53;;;39.10;;
77409;SDS011;66481;51.332;22.804;2024-02-26T17:34:31;54.83;;;27.63;;
77409;SDS011;66481;51.332;22.804;2024-02-26T17:38:32;41.08;;;23.10;;
77409;SDS011;66481;51.332;22.804;2024-02-26T17:42:33;42.10;;;21.63;;
77409;SDS011;66481;51.332;22.804;2024-02-26T17:46:35;31.30;;;17.90;;
77409;SDS011;66481;51.332;22.804;2024-02-26T17:50:37;26.77;;;16.48;;
77409;SDS011;66481;51.332;22.804;2024-02-26T17:54:39;24.58;;;14.90;;
77409;SDS011;66481;51.332;22.804;2024-02-26T17:58:40;24.40;;;15.02;;
77409;SDS011;66481;51.332;22.804;2024-02-26T18:02:42;28.75;;;13.23;;
77409;SDS011;66481;51.332;22.804;2024-02-26T18:06:44;25.40;;;14.02;;
77409;SDS011;66481;51.332;22.804;2024-02-26T18:10:47;32.13;;;15.98;;
77409;SDS011;66481;51.332;22.804;2024-02-26T18:14:50;33.92;;;15.77;;
77409;SDS011;66481;51.332;22.804;2024-02-26T18:18:51;29.45;;;15.23;;
77409;SDS011;66481;51.332;22.804;2024-02-26T18:22:52;29.77;;;14.70;;
77409;SDS011;66481;51.332;22.804;2024-02-26T18:26:54;24.45;;;14.45;;
77409;SDS011;66481;51.332;22.804;2024-02-26T18:30:55;28.30;;;15.15;;
77409;SDS011;66481;51.332;22.804;2024-02-26T18:35:03;29.50;;;15.50;;
77409;SDS011;66481;51.332;22.804;2024-02-26T18:39:05;29.05;;;17.40;;
77409;SDS011;66481;51.332;22.804;2024-02-26T18:43:10;25.45;;;15.38;;
77409;SDS011;66481;51.332;22.804;2024-02-26T18:47:13;29.85;;;15.98;;
77409;SDS011;66481;51.332;22.804;2024-02-26T18:51:14;27.75;;;16.95;;
77409;SDS011;66481;51.332;22.804;2024-02-26T18:55:16;45.78;;;23.35;;
77409;SDS011;66481;51.332;22.804;2024-02-26T18:59:18;26.50;;;15.52;;
77409;SDS011;66481;51.332;22.804;2024-02-26T19:03:21;26.75;;;16.50;;
77409;SDS011;66481;51.332;22.804;2024-02-26T19:07:22;38.22;;;22.33;;
77409;SDS011;66481;51.332;22.804;2024-02-26T19:11:29;25.27;;;16.05;;
77409;SDS011;66481;51.332;22.804;2024-02-26T19:15:30;29.63;;;15.57;;
77409;SDS011;66481;51.332;22.804;2024-02-26T19:19:35;24.05;;;14.32;;
77409;SDS011;66481;51.332;22.804;2024-02-26T19:23:39;24.42;;;14.88;;
77409;SDS011;66481;51.332;22.804;2024-02-26T19:27:43;26.13;;;15.18;;
77409;SDS011;66481;51.332;22.804;2024-02-26T19:31:45;31.90;;;16.05;;
77409;SDS011;66481;51.332;22.804;2024-02-26T19:35:46;26.58;;;16.15;;
77409;SDS011;66481;51.332;22.804;2024-02-26T19:39:49;29.45;;;15.85;;
77409;SDS011;66481;51.332;22.804;2024-02-26T19:43:52;28.73;;;17.92;;
77409;SDS011;66481;51.332;22.804;2024-02-26T19:47:53;31.83;;;17.30;;
77409;SDS011;66481;51.332;22.804;2024-02-26T19:51:56;29.23;;;16.65;;
77409;SDS011;66481;51.332;22.804;2024-02-26T19:55:59;24.98;;;15.80;;
77409;SDS011;66481;51.332;22.804;2024-02-26T20:00:06;26.23;;;15.40;;
77409;SDS011;66481;51.332;22.804;2024-02-26T20:04:08;30.48;;;16.52;;
77409;SDS011;66481;51.332;22.804;2024-02-26T20:08:13;25.05;;;15.15;;
77409;SDS011;66481;51.332;22.804;2024-02-26T20:12:14;27.70;;;15.18;;
77409;SDS011;66481;51.332;22.804;2024-02-26T20:16:15;27.40;;;16.05;;
77409;SDS011;66481;51.332;22.804;2024-02-26T20:20:17;26.17;;;14.93;;
77409;SDS011;66481;51.332;22.804;2024-02-26T20:24:19;31.58;;;15.48;;
77409;SDS011;66481;51.332;22.804;2024-02-26T20:28:23;31.60;;;16.08;;
77409;SDS011;66481;51.332;22.804;2024-02-26T20:32:24;29.33;;;16.00;;
77409;SDS011;66481;51.332;22.804;2024-02-26T20:36:33;31.70;;;15.88;;
77409;SDS011;66481;51.332;22.804;2024-02-26T20:40:37;30.80;;;16.17;;
77409;SDS011;66481;51.332;22.804;2024-02-26T20:44:40;32.55;;;17.25;;
77409;SDS011;66481;51.332;22.804;2024-02-26T20:48:42;27.13;;;16.02;;
77409;SDS011;66481;51.332;22.804;2024-02-26T20:52:44;29.98;;;16.00;;
77409;SDS011;66481;51.332;22.804;2024-02-26T20:56:46;31.77;;;17.05;;
77409;SDS011;66481;51.332;22.804;2024-02-26T21:01:09;33.60;;;18.40;;
77409;SDS011;66481;51.332;22.804;2024-02-26T21:05:10;35.10;;;18.48;;
77409;SDS011;66481;51.332;22.804;2024-02-26T21:09:12;30.27;;;16.88;;
77409;SDS011;66481;51.332;22.804;2024-02-26T21:17:17;28.27;;;17.02;;
77409;SDS011;66481;51.332;22.804;2024-02-26T21:21:18;25.42;;;14.98;;
77409;SDS011;66481;51.332;22.804;2024-02-26T21:25:23;31.27;;;16.75;;
77409;SDS011;66481;51.332;22.804;2024-02-26T21:29:25;35.95;;;20.25;;
77409;SDS011;66481;51.332;22.804;2024-02-26T21:33:28;35.05;;;18.42;;
77409;SDS011;66481;51.332;22.804;2024-02-26T21:37:29;32.13;;;16.75;;
77409;SDS011;66481;51.332;22.804;2024-02-26T21:41:31;27.70;;;16.95;;
77409;SDS011;66481;51.332;22.804;2024-02-26T21:45:32;32.58;;;18.15;;
77409;SDS011;66481;51.332;22.804;2024-02-26T21:49:35;30.60;;;16.88;;
77409;SDS011;66481;51.332;22.804;2024-02-26T21:53:36;33.58;;;16.83;;
77409;SDS011;66481;51.332;22.804;2024-02-26T21:57:38;33.10;;;17.15;;
77409;SDS011;66481;51.332;22.804;2024-02-26T22:01:39;39.75;;;19.05;;
77409;SDS011;66481;51.332;22.804;2024-02-26T22:05:40;35.13;;;17.27;;
77409;SDS011;66481;51.332;22.804;2024-02-26T22:09:42;32.63;;;17.63;;
77409;SDS011;66481;51.332;22.804;2024-02-26T22:13:45;32.83;;;17.98;;
77409;SDS011;66481;51.332;22.804;2024-02-26T22:17:46;36.08;;;18.33;;
77409;SDS011;66481;51.332;22.804;2024-02-26T22:21:47;33.85;;;17.88;;
77409;SDS011;66481;51.332;22.804;2024-02-26T22:25:48;36.45;;;19.65;;
77409;SDS011;66481;51.332;22.804;2024-02-26T22:29:50;30.98;;;15.82;;
77409;SDS011;66481;51.332;22.804;2024-02-26T22:33:54;32.80;;;16.30;;
77409;SDS011;66481;51.332;22.804;2024-02-26T22:37:55;29.77;;;17.42;;
77409;SDS011;66481;51.332;22.804;2024-02-26T22:41:56;33.60;;;17.13;;
77409;SDS011;66481;51.332;22.804;2024-02-26T22:50:01;31.20;;;15.88;;
77409;SDS011;66481;51.332;22.804;2024-02-26T22:54:05;35.75;;;17.85;;
77409;SDS011;66481;51.332;22.804;2024-02-26T22:58:06;32.03;;;18.83;;
77409;SDS011;66481;51.332;22.804;2024-02-26T23:02:07;31.00;;;16.92;;
77409;SDS011;66481;51.332;22.804;2024-02-26T23:06:08;29.80;;;14.80;;
77409;SDS011;66481;51.332;22.804;2024-02-26T23:10:10;32.90;;;16.75;;
77409;SDS011;66481;51.332;22.804;2024-02-26T23:14:16;33.80;;;16.85;;
77409;SDS011;66481;51.332;22.804;2024-02-26T23:18:17;30.52;;;16.50;;
77409;SDS011;66481;51.332;22.804;2024-02-26T23:22:19;30.67;;;15.55;;
77409;SDS011;66481;51.332;22.804;2024-02-26T23:26:20;34.63;;;16.77;;
77409;SDS011;66481;51.332;22.804;2024-02-26T23:30:22;34.63;;;16.73;;